createdAt,value
2022-08-29T00:01:30.255Z,100.00
2022-08-29T00:06:31.868Z,100.00
2022-08-29T00:11:33.427Z,100.00
2022-08-29T00:16:35.457Z,100.00
2022-08-29T00:21:37.143Z,100.00
2022-08-29T00:26:38.799Z,100.00
2022-08-29T00:31:40.371Z,100.00
2022-08-29T00:36:41.940Z,100.00
2022-08-29T00:41:50.720Z,100.00
2022-08-29T00:46:55.941Z,100.00
2022-08-29T00:52:00.480Z,100.00
2022-08-29T00:57:02.488Z,100.00
2022-08-29T01:02:06.254Z,100.00
2022-08-29T01:07:09.433Z,100.00
2022-08-29T01:12:17.618Z,100.00
2022-08-29T01:17:24.025Z,100.00
2022-08-29T01:22:47.513Z,100.00
2022-08-29T01:28:06.819Z,100.00
2022-08-29T01:33:08.872Z,100.00
2022-08-29T01:38:11.752Z,100.00
2022-08-29T01:43:13.322Z,100.00
2022-08-29T01:48:15.339Z,100.00
2022-08-29T01:53:17.279Z,100.00
2022-08-29T01:58:18.822Z,100.00
2022-08-29T02:03:20.426Z,100.00
2022-08-29T02:08:21.975Z,100.00
2022-08-29T02:13:24.490Z,100.00
2022-08-29T02:18:26.064Z,100.00
2022-08-29T02:23:31.248Z,100.00
2022-08-29T02:28:35.496Z,100.00
2022-08-29T02:33:38.199Z,100.00
2022-08-29T02:38:40.288Z,100.00
2022-08-29T02:43:42.293Z,100.00
2022-08-29T02:48:49.218Z,100.00
2022-08-29T02:54:03.669Z,100.00
2022-08-29T02:59:05.658Z,100.00
2022-08-29T03:04:07.228Z,100.00
2022-08-29T03:09:08.837Z,100.00
2022-08-29T03:14:10.458Z,100.00
2022-08-29T03:19:12.076Z,100.00
2022-08-29T03:24:13.769Z,100.00
2022-08-29T03:29:15.348Z,100.00
2022-08-29T03:34:16.924Z,100.00
2022-08-29T03:39:18.841Z,100.00
2022-08-29T03:44:20.428Z,100.00
2022-08-29T03:49:21.979Z,100.00
2022-08-29T03:54:26.620Z,100.00
2022-08-29T03:59:28.182Z,100.00
2022-08-29T04:04:48.093Z,100.00
2022-08-29T04:09:49.916Z,100.00
2022-08-29T04:14:51.518Z,100.00
2022-08-29T04:19:53.160Z,100.00
2022-08-29T04:24:54.839Z,100.00
2022-08-29T04:29:56.354Z,100.00
2022-08-29T04:34:58.858Z,100.00
2022-08-29T04:40:01.420Z,100.00
2022-08-29T04:45:04.751Z,100.00
2022-08-29T04:50:07.841Z,100.00
2022-08-29T04:55:11.442Z,100.00
2022-08-29T05:00:17.313Z,100.00
2022-08-29T05:05:18.946Z,100.00
2022-08-29T05:10:22.596Z,100.00
2022-08-29T05:15:24.235Z,100.00
2022-08-29T05:20:25.804Z,100.00
2022-08-29T05:25:27.340Z,100.00
2022-08-29T05:30:35.190Z,100.00
2022-08-29T05:35:37.599Z,100.00
2022-08-29T05:40:39.214Z,100.00
2022-08-29T05:45:41.782Z,100.00
2022-08-29T05:50:44.036Z,100.00
2022-08-29T05:55:47.680Z,100.00
2022-08-29T06:00:52.392Z,100.00
2022-08-29T06:05:54.029Z,100.00
2022-08-29T06:10:55.833Z,100.00
2022-08-29T06:15:57.537Z,100.00
2022-08-29T06:20:59.237Z,100.00
2022-08-29T06:26:01.233Z,100.00
2022-08-29T06:31:20.929Z,100.00
2022-08-29T06:36:25.507Z,100.00
2022-08-29T06:41:28.593Z,100.00
2022-08-29T06:46:37.589Z,100.00
2022-08-29T06:51:42.315Z,100.00
2022-08-29T06:56:43.980Z,100.00
2022-08-29T07:01:47.580Z,100.00
2022-08-29T07:06:49.607Z,100.00
2022-08-29T07:11:51.274Z,100.00
2022-08-29T07:16:52.974Z,100.00
2022-08-29T07:21:58.121Z,100.00
2022-08-29T07:27:00.534Z,100.00
2022-08-29T07:32:02.250Z,100.00
2022-08-29T07:37:05.759Z,100.00
2022-08-29T07:42:07.933Z,100.00
2022-08-29T07:47:09.510Z,100.00
2022-08-29T07:52:11.334Z,100.00
2022-08-29T07:57:16.534Z,100.00
2022-08-29T08:02:18.188Z,100.00
2022-08-29T08:07:19.786Z,100.00
2022-08-29T08:12:26.356Z,100.00
2022-08-29T08:17:27.936Z,100.00
2022-08-29T08:22:29.503Z,100.00
2022-08-29T08:27:33.262Z,100.00
2022-08-29T08:32:34.984Z,100.00
2022-08-29T08:37:40.319Z,100.00
2022-08-29T08:42:45.454Z,100.00
2022-08-29T08:47:51.126Z,100.00
2022-08-29T08:53:00.786Z,100.00
2022-08-29T08:58:10.974Z,100.00
2022-08-29T09:03:48.457Z,100.00
2022-08-29T09:09:08.124Z,100.00
2022-08-29T09:14:47.094Z,100.00
2022-08-29T09:19:52.614Z,100.00
2022-08-29T09:25:01.304Z,100.00
2022-08-29T09:30:14.910Z,100.00
2022-08-29T09:35:24.505Z,100.00
2022-08-29T09:40:42.841Z,100.00
2022-08-29T09:46:10.970Z,100.00
2022-08-29T09:51:22.217Z,100.00
2022-08-29T09:56:27.888Z,100.00
2022-08-29T10:01:32.279Z,100.00
2022-08-29T10:06:45.114Z,100.00
2022-08-29T10:11:56.528Z,100.00
2022-08-29T10:17:43.251Z,100.00
2022-08-29T10:23:31.805Z,100.00
2022-08-29T10:28:43.059Z,100.00
2022-08-29T10:34:16.591Z,100.00
2022-08-29T10:39:46.018Z,100.00
2022-08-29T10:45:02.695Z,100.00
2022-08-29T10:50:10.102Z,100.00
2022-08-29T10:55:27.403Z,100.00
2022-08-29T11:00:40.234Z,100.00
2022-08-29T11:05:52.579Z,100.00
2022-08-29T11:10:54.263Z,100.00
2022-08-29T11:16:52.634Z,100.00
2022-08-29T11:22:17.275Z,100.00
2022-08-29T11:34:36.780Z,100.00
2022-08-29T11:40:15.491Z,100.00
2022-08-29T11:45:25.626Z,100.00
2022-08-29T11:50:38.911Z,100.00
2022-08-29T11:55:43.078Z,100.00
2022-08-29T12:00:51.465Z,96.98
2022-08-29T12:06:00.850Z,94.00
2022-08-29T12:11:02.464Z,92.68
2022-08-29T12:16:09.313Z,94.23
2022-08-29T12:21:44.237Z,88.49
2022-08-29T12:26:46.922Z,84.81
2022-08-29T12:32:22.284Z,84.97
2022-08-29T12:38:12.878Z,81.99
2022-08-29T12:49:55.846Z,85.55
2022-08-29T12:55:00.575Z,84.83
2022-08-29T13:00:12.007Z,75.71
2022-08-29T13:05:28.899Z,72.99
2022-08-29T13:10:30.833Z,77.38
2022-08-29T13:15:33.442Z,87.44
2022-08-29T13:20:38.265Z,88.69
2022-08-29T13:25:46.784Z,80.90
2022-08-29T13:31:10.226Z,82.41
2022-08-29T13:36:27.172Z,91.60
2022-08-29T13:41:29.010Z,100.00
2022-08-29T13:46:31.058Z,100.00
2022-08-29T13:51:33.769Z,94.90
2022-08-29T14:07:02.072Z,98.11
2022-08-29T14:12:06.701Z,96.44
2022-08-29T14:17:08.299Z,98.04
2022-08-29T14:22:11.800Z,91.08
2022-08-29T14:27:13.471Z,87.42
2022-08-29T14:32:15.104Z,75.72
2022-08-29T14:37:16.651Z,79.30
2022-08-29T14:42:18.905Z,82.95
2022-08-29T14:47:20.539Z,84.07
2022-08-29T14:52:22.154Z,80.07
2022-08-29T14:57:23.696Z,83.63
2022-08-29T15:02:25.332Z,78.21
2022-08-29T15:07:27.255Z,79.73
2022-08-29T15:12:29.054Z,81.22
2022-08-29T15:17:30.956Z,83.94
2022-08-29T15:22:32.717Z,87.11
2022-08-29T15:27:34.283Z,88.10
2022-08-29T15:32:38.936Z,79.82
2022-08-29T15:37:40.675Z,77.79
2022-08-29T15:42:42.269Z,77.39
2022-08-29T15:47:46.227Z,75.53
2022-08-29T15:52:48.135Z,73.66
2022-08-29T15:57:51.955Z,73.25
2022-08-29T16:02:55.021Z,79.38
2022-08-29T16:07:56.717Z,81.16
2022-08-29T16:12:58.806Z,81.09
2022-08-29T16:18:32.341Z,74.23
2022-08-29T16:24:03.351Z,77.90
2022-08-29T16:29:26.560Z,75.71
2022-08-29T16:34:28.916Z,74.39
2022-08-29T16:39:30.467Z,72.27
2022-08-29T16:44:33.174Z,72.84
2022-08-29T16:50:13.394Z,76.56
2022-08-29T16:55:15.140Z,76.18
2022-08-29T17:00:16.735Z,78.17
2022-08-29T17:05:19.609Z,88.84
2022-08-29T17:10:21.158Z,100.00
2022-08-29T17:15:22.825Z,96.65
2022-08-29T17:20:24.896Z,81.26
2022-08-29T17:25:26.563Z,100.00
2022-08-29T17:30:30.564Z,100.00
2022-08-29T17:35:32.321Z,100.00
2022-08-29T17:40:34.032Z,100.00
2022-08-29T17:45:38.688Z,100.00
2022-08-29T17:50:40.387Z,100.00
2022-08-29T17:55:42.079Z,100.00
2022-08-29T18:00:43.932Z,100.00
2022-08-29T18:05:45.939Z,100.00
2022-08-29T18:10:47.528Z,100.00
2022-08-29T18:15:52.711Z,100.00
2022-08-29T18:20:54.500Z,100.00
2022-08-29T18:25:56.110Z,100.00
2022-08-29T18:31:01.206Z,100.00
2022-08-29T18:36:06.876Z,100.00
2022-08-29T18:41:08.569Z,100.00
2022-08-29T18:46:10.337Z,100.00
2022-08-29T18:51:15.463Z,100.00
2022-08-29T18:56:17.031Z,100.00
2022-08-29T19:01:28.399Z,100.00
2022-08-29T19:06:30.541Z,100.00
2022-08-29T19:11:32.076Z,100.00
2022-08-29T19:16:34.332Z,100.00
2022-08-29T19:21:35.893Z,100.00
2022-08-29T19:26:39.942Z,100.00
2022-08-29T19:31:41.663Z,100.00
2022-08-29T19:36:46.923Z,100.00
2022-08-29T19:41:50.084Z,100.00
2022-08-29T19:46:52.305Z,100.00
2022-08-29T19:51:54.181Z,100.00
2022-08-29T19:56:56.320Z,100.00
2022-08-29T20:01:58.379Z,100.00
2022-08-29T20:07:00.553Z,100.00
2022-08-29T20:12:03.800Z,100.00
2022-08-29T20:17:09.212Z,100.00
2022-08-29T20:22:11.825Z,100.00
2022-08-29T20:27:14.163Z,100.00
2022-08-29T20:32:15.867Z,100.00
2022-08-29T20:37:19.306Z,100.00
2022-08-29T20:42:24.013Z,100.00
2022-08-29T20:47:40.847Z,100.00
2022-08-29T20:52:42.382Z,100.00
2022-08-29T20:57:43.920Z,100.00
2022-08-29T21:03:05.757Z,100.00
2022-08-29T21:09:10.751Z,100.00
2022-08-29T21:14:15.182Z,100.00
2022-08-29T21:19:17.231Z,100.00
2022-08-29T21:24:20.134Z,100.00
2022-08-29T21:29:22.841Z,100.00
2022-08-29T21:34:43.650Z,100.00
2022-08-29T21:39:47.690Z,100.00
2022-08-29T21:44:49.249Z,100.00
2022-08-29T21:49:51.721Z,100.00
2022-08-29T21:54:54.192Z,100.00
2022-08-29T21:59:55.827Z,100.00
2022-08-29T22:04:57.360Z,100.00
2022-08-29T22:09:59.653Z,100.00
2022-08-29T22:15:19.889Z,100.00
2022-08-29T22:20:21.476Z,100.00
2022-08-29T22:25:23.537Z,100.00
2022-08-29T22:30:31.805Z,100.00
2022-08-29T22:35:34.490Z,100.00
2022-08-29T22:40:36.121Z,100.00
2022-08-29T22:45:39.499Z,100.00
2022-08-29T22:50:45.898Z,100.00
2022-08-29T22:55:59.512Z,100.00
2022-08-29T23:01:01.050Z,100.00
2022-08-29T23:06:02.613Z,100.00
2022-08-29T23:11:04.221Z,100.00
2022-08-29T23:16:05.914Z,100.00
2022-08-29T23:21:07.943Z,100.00
2022-08-29T23:26:10.193Z,100.00
2022-08-29T23:31:12.664Z,100.00
2022-08-29T23:36:14.495Z,100.00
2022-08-29T23:41:16.226Z,100.00
2022-08-29T23:46:22.359Z,100.00
2022-08-29T23:51:24.088Z,100.00
2022-08-29T23:56:25.891Z,100.00
